Time;durP1;ratioP1;P1;durP2;ratioP2;P2;SDS_P1;SDS_P2;PMS_P1;PMS_P2;Temp;Humidity;BMP_temperature;BMP_pressure;BME280_temperature;BME280_humidity;BME280_pressure;Samples;Min_cycle;Max_cycle;Signal;HPM_P1;HPM_P2
2021/06/23 00:01:19;;;;;;;13.70;3.40;;;16.40;99.90;;;;;;5127783;28;20187;-73
2021/06/23 00:03:45;;;;;;;13.40;3.17;;;16.40;99.90;;;;;;5127772;28;20200;-73
2021/06/23 00:06:11;;;;;;;14.65;3.20;;;16.50;99.90;;;;;;5109104;28;20241;-74
2021/06/23 00:08:37;;;;;;;11.00;3.03;;;16.50;99.90;;;;;;5124971;28;20573;-73
2021/06/23 00:11:03;;;;;;;12.07;3.22;;;16.80;99.90;;;;;;5126936;28;20199;-73
2021/06/23 00:13:33;;;;;;;13.00;3.47;;;16.90;99.90;;;;;;5127695;28;20159;-74
2021/06/23 00:16:04;;;;;;;10.65;3.58;;;17.00;99.90;;;;;;5109106;28;20226;-74
2021/06/23 00:18:30;;;;;;;10.07;3.25;;;16.80;99.90;;;;;;5124767;28;20150;-73
2021/06/23 00:20:56;;;;;;;14.77;3.20;;;16.50;99.90;;;;;;5127168;28;20231;-73
2021/06/23 00:23:22;;;;;;;18.58;3.85;;;16.40;99.90;;;;;;5108982;28;20193;-73
2021/06/23 00:25:48;;;;;;;9.52;3.17;;;16.40;99.90;;;;;;5126702;28;20183;-73
2021/06/23 00:28:13;;;;;;;13.63;3.17;;;16.40;99.90;;;;;;5124445;28;20252;-73
2021/06/23 00:30:39;;;;;;;9.32;3.22;;;16.40;99.90;;;;;;5126745;28;20262;-73
2021/06/23 00:33:07;;;;;;;11.85;3.53;;;16.40;99.90;;;;;;5126948;28;20213;-73
2021/06/23 00:35:34;;;;;;;10.60;2.83;;;16.30;99.90;;;;;;5127122;28;20155;-73
2021/06/23 00:38:00;;;;;;;13.50;3.58;;;16.40;99.90;;;;;;5124093;28;20166;-73
2021/06/23 00:40:25;;;;;;;9.80;3.25;;;16.40;99.90;;;;;;5126461;28;20171;-73
2021/06/23 00:42:52;;;;;;;14.80;3.20;;;16.40;99.90;;;;;;5126982;28;20167;-74
2021/06/23 00:45:18;;;;;;;16.88;3.20;;;16.30;99.90;;;;;;5126039;28;20184;-74
2021/06/23 00:47:46;;;;;;;9.00;2.83;;;16.40;99.90;;;;;;5124435;28;20170;-74
2021/06/23 00:50:13;;;;;;;11.88;3.28;;;16.30;99.90;;;;;;5108213;28;20193;-74
2021/06/23 00:52:40;;;;;;;10.50;3.00;;;16.30;99.90;;;;;;5126768;28;20204;-73
2021/06/23 00:55:07;;;;;;;8.57;2.80;;;16.30;99.90;;;;;;5126381;28;20162;-73
2021/06/23 00:57:33;;;;;;;10.20;3.40;;;16.40;99.90;;;;;;5124182;28;20263;-73
2021/06/23 01:00:00;;;;;;;10.13;3.38;;;16.30;99.90;;;;;;5126250;28;20189;-74
2021/06/23 01:02:27;;;;;;;17.30;3.63;;;16.30;99.90;;;;;;5126649;28;20239;-74
2021/06/23 01:04:54;;;;;;;10.80;3.33;;;16.30;99.90;;;;;;5126570;28;20167;-73
2021/06/23 01:07:21;;;;;;;12.55;3.10;;;16.30;99.90;;;;;;5123920;28;20413;-73
2021/06/23 01:09:47;;;;;;;13.35;3.35;;;16.30;99.90;;;;;;5126189;28;20178;-73
2021/06/23 01:12:27;;;;;;;9.20;3.13;;;16.20;99.90;;;;;;5108282;28;20196;-74
2021/06/23 01:14:59;;;;;;;15.20;3.90;;;16.30;99.90;;;;;;5126521;28;20226;-73
2021/06/23 01:17:31;;;;;;;16.67;3.50;;;16.30;99.90;;;;;;5124051;28;20158;-73
2021/06/23 01:20:12;;;;;;;7.45;3.38;;;16.40;99.90;;;;;;5126231;28;20166;-74
2021/06/23 01:22:40;;;;;;;13.50;3.88;;;16.40;99.90;;;;;;5126480;28;20166;-73
2021/06/23 01:25:12;;;;;;;13.38;3.42;;;16.40;99.90;;;;;;5107910;28;20243;-73
2021/06/23 01:27:39;;;;;;;18.95;3.55;;;16.40;99.90;;;;;;5105536;28;20171;-74
2021/06/23 01:30:06;;;;;;;13.88;4.70;;;16.40;99.90;;;;;;5107769;28;20280;-73
2021/06/23 01:32:32;;;;;;;8.30;3.70;;;16.50;99.90;;;;;;5108046;28;20171;-74
2021/06/23 01:34:58;;;;;;;17.73;4.43;;;16.30;99.90;;;;;;5126378;28;20158;-73
2021/06/23 01:37:23;;;;;;;11.13;3.78;;;16.30;99.90;;;;;;5123750;28;20471;-73
2021/06/23 01:39:49;;;;;;;10.63;3.72;;;16.30;99.90;;;;;;5125982;28;20190;-73
2021/06/23 01:42:15;;;;;;;8.30;3.92;;;16.30;99.90;;;;;;5126328;28;20159;-73
2021/06/23 01:44:41;;;;;;;11.90;4.45;;;16.30;99.90;;;;;;5126378;28;20161;-74
2021/06/23 01:47:06;;;;;;;13.48;4.35;;;16.20;99.90;;;;;;5124731;28;20159;-73
2021/06/23 01:49:32;;;;;;;17.05;4.72;;;16.20;99.90;;;;;;5125165;28;20166;-73
2021/06/23 01:51:58;;;;;;;21.40;4.50;;;16.20;99.90;;;;;;5126083;28;20190;-73
2021/06/23 01:54:24;;;;;;;15.40;4.15;;;16.30;99.90;;;;;;5125922;28;20163;-73
2021/06/23 01:56:49;;;;;;;13.35;4.60;;;16.20;99.90;;;;;;5127630;28;20243;-73
2021/06/23 01:59:15;;;;;;;9.95;4.70;;;16.20;99.90;;;;;;5108865;28;20163;-73
2021/06/23 02:02:04;;;;;;;9.00;4.50;;;16.30;99.90;;;;;;5130119;28;20151;-73
2021/06/23 02:04:41;;;;;;;13.40;3.97;;;16.30;99.90;;;;;;5130073;28;20170;-74
2021/06/23 02:07:37;;;;;;;14.95;4.20;;;16.20;99.90;;;;;;5109912;28;20590;-72
2021/06/23 02:10:02;;;;;;;8.57;3.75;;;16.30;99.90;;;;;;5129315;28;20186;-72
2021/06/23 02:12:28;;;;;;;13.05;4.47;;;16.20;99.90;;;;;;5111664;28;20171;-73
2021/06/23 02:14:58;;;;;;;12.05;4.22;;;16.10;99.90;;;;;;5129821;28;20159;-74
2021/06/23 02:17:25;;;;;;;13.88;4.18;;;16.20;99.90;;;;;;5127355;28;20216;-73
2021/06/23 02:19:53;;;;;;;8.68;3.85;;;16.10;99.90;;;;;;5129663;28;20222;-73
2021/06/23 02:22:24;;;;;;;12.10;4.13;;;16.10;99.90;;;;;;5129846;28;20163;-73
2021/06/23 02:24:53;;;;;;;9.77;4.13;;;16.00;99.90;;;;;;5129421;28;20162;-73
2021/06/23 02:27:19;;;;;;;10.00;4.05;;;16.00;99.90;;;;;;5127161;28;20219;-72
2021/06/23 02:29:46;;;;;;;13.25;4.45;;;16.10;99.90;;;;;;5129337;28;20239;-72
2021/06/23 02:32:15;;;;;;;7.53;4.13;;;16.20;99.90;;;;;;5129671;28;20154;-73
2021/06/23 02:34:42;;;;;;;13.27;3.95;;;16.10;99.90;;;;;;5111296;28;20693;-73
2021/06/23 02:37:10;;;;;;;11.70;4.35;;;16.10;99.90;;;;;;5127732;28;20580;-73
2021/06/23 02:39:37;;;;;;;6.85;3.80;;;16.10;99.90;;;;;;5110027;28;20166;-73
2021/06/23 02:42:03;;;;;;;10.07;4.10;;;16.00;99.90;;;;;;5129331;28;20166;-73
2021/06/23 02:44:29;;;;;;;9.77;4.30;;;16.10;99.90;;;;;;5111109;28;20166;-72
2021/06/23 02:46:55;;;;;;;13.30;4.57;;;16.20;99.90;;;;;;5129311;28;20158;-72
2021/06/23 02:49:21;;;;;;;11.27;4.53;;;16.20;99.90;;;;;;5126846;28;20567;-72
2021/06/23 02:51:47;;;;;;;12.18;4.68;;;16.20;99.90;;;;;;5129207;28;20194;-72
2021/06/23 02:54:14;;;;;;;9.23;4.35;;;16.10;99.90;;;;;;5129012;28;20180;-72
2021/06/23 02:56:39;;;;;;;11.57;4.22;;;16.10;99.90;;;;;;5128655;28;20198;-73
2021/06/23 02:59:05;;;;;;;12.70;4.80;;;16.00;99.90;;;;;;5107860;28;20159;-73
2021/06/23 03:01:31;;;;;;;8.35;4.55;;;16.10;99.90;;;;;;5129183;28;20163;-72
2021/06/23 03:03:57;;;;;;;18.27;4.75;;;16.20;99.90;;;;;;5128992;28;20155;-73
2021/06/23 03:06:23;;;;;;;9.35;4.30;;;16.20;99.90;;;;;;5128926;28;20256;-73
2021/06/23 03:08:49;;;;;;;22.17;5.47;;;16.20;99.90;;;;;;5125264;28;20159;-72
2021/06/23 03:11:15;;;;;;;11.38;4.97;;;16.10;99.90;;;;;;5110054;28;20225;-73
2021/06/23 03:13:40;;;;;;;15.70;5.60;;;16.10;99.90;;;;;;5128906;28;20159;-74
2021/06/23 03:16:06;;;;;;;12.23;5.03;;;16.10;99.90;;;;;;5128516;28;20210;-73
2021/06/23 03:18:32;;;;;;;13.30;5.53;;;16.10;99.90;;;;;;5126119;28;20248;-73
2021/06/23 03:21:00;;;;;;;15.55;5.50;;;16.10;99.90;;;;;;5110233;28;20594;-73
2021/06/23 03:23:25;;;;;;;17.13;5.65;;;16.10;99.90;;;;;;5128547;28;20530;-73
2021/06/23 03:25:51;;;;;;;14.48;5.40;;;16.10;99.90;;;;;;5128169;28;20177;-72
2021/06/23 03:28:17;;;;;;;21.15;5.75;;;16.10;99.90;;;;;;5125857;28;20245;-73
2021/06/23 03:30:43;;;;;;;12.07;6.18;;;16.10;99.90;;;;;;5128379;28;20224;-73
2021/06/23 03:33:08;;;;;;;17.85;5.80;;;16.10;99.90;;;;;;5128352;28;20169;-73
2021/06/23 03:35:34;;;;;;;15.00;6.78;;;16.00;99.90;;;;;;5128477;28;20190;-73
2021/06/23 03:38:00;;;;;;;11.75;5.97;;;16.10;99.90;;;;;;5125678;28;20159;-73
2021/06/23 03:40:26;;;;;;;13.52;6.18;;;16.10;99.90;;;;;;5127931;28;20189;-74
2021/06/23 03:42:51;;;;;;;6.55;5.82;;;16.10;99.90;;;;;;5128374;28;20163;-73
2021/06/23 03:45:18;;;;;;;19.27;6.82;;;16.10;99.90;;;;;;5109781;28;20155;-74
2021/06/23 03:47:44;;;;;;;14.38;7.07;;;16.10;99.90;;;;;;5107265;28;20570;-73
2021/06/23 03:50:12;;;;;;;13.23;7.60;;;16.00;99.90;;;;;;5127766;28;20190;-73
2021/06/23 03:52:38;;;;;;;17.90;8.18;;;16.10;99.90;;;;;;5128151;28;20169;-73
2021/06/23 03:55:06;;;;;;;13.25;7.60;;;16.20;99.90;;;;;;5127566;28;20182;-73
2021/06/23 03:57:32;;;;;;;16.25;7.32;;;16.10;99.90;;;;;;5125387;28;20234;-73
2021/06/23 03:59:57;;;;;;;20.38;7.70;;;16.00;99.90;;;;;;5127708;28;20167;-73
2021/06/23 04:02:23;;;;;;;19.63;8.75;;;16.00;99.90;;;;;;5127530;28;20194;-74
2021/06/23 04:04:49;;;;;;;12.32;7.72;;;15.90;99.90;;;;;;5127723;28;20632;-73
2021/06/23 04:07:15;;;;;;;15.85;8.43;;;16.00;99.90;;;;;;5106718;28;20278;-73
2021/06/23 04:09:41;;;;;;;13.80;8.30;;;16.10;99.90;;;;;;5127039;28;20163;-73
2021/06/23 04:12:08;;;;;;;19.38;8.23;;;16.10;99.90;;;;;;5127598;28;20158;-73
2021/06/23 04:14:34;;;;;;;15.43;8.60;;;16.00;99.90;;;;;;5127542;28;20178;-73
2021/06/23 04:17:00;;;;;;;16.02;9.32;;;15.90;99.90;;;;;;5126659;28;20173;-73
2021/06/23 04:19:25;;;;;;;16.13;8.80;;;15.90;99.90;;;;;;5125635;28;20155;-74
2021/06/23 04:21:51;;;;;;;14.35;8.45;;;16.00;99.90;;;;;;5109382;28;20177;-73
2021/06/23 04:24:17;;;;;;;14.75;8.43;;;15.90;99.90;;;;;;5127464;28;20163;-73
2021/06/23 04:26:43;;;;;;;20.10;9.70;;;16.00;99.90;;;;;;5126981;28;20163;-73
2021/06/23 04:29:10;;;;;;;16.95;9.10;;;16.00;99.90;;;;;;5106175;28;20186;-73
2021/06/23 04:31:35;;;;;;;18.08;9.43;;;15.90;99.90;;;;;;5127086;28;20216;-73
2021/06/23 04:34:01;;;;;;;17.60;8.80;;;15.90;99.90;;;;;;5108476;28;20257;-73
2021/06/23 04:36:27;;;;;;;18.17;9.07;;;16.00;99.90;;;;;;5108952;28;20163;-73
2021/06/23 04:38:53;;;;;;;13.65;9.10;;;16.10;99.90;;;;;;5124175;28;20154;-73
2021/06/23 04:41:18;;;;;;;15.57;9.15;;;16.10;99.90;;;;;;5126638;28;20178;-74
2021/06/23 04:43:44;;;;;;;18.08;10.43;;;16.10;99.90;;;;;;5108430;28;20166;-73
2021/06/23 04:46:10;;;;;;;13.57;9.32;;;16.20;99.90;;;;;;5126756;28;20163;-73
2021/06/23 04:48:36;;;;;;;14.32;9.98;;;16.10;99.90;;;;;;5124251;28;20174;-73
2021/06/23 04:51:02;;;;;;;18.02;10.10;;;16.10;99.90;;;;;;5126684;28;20190;-73
2021/06/23 04:53:28;;;;;;;18.20;9.90;;;16.10;99.90;;;;;;5126871;28;20189;-73
2021/06/23 04:55:54;;;;;;;21.75;9.82;;;16.20;99.90;;;;;;5126348;28;20559;-74
2021/06/23 04:58:20;;;;;;;16.15;10.35;;;16.20;99.90;;;;;;5124215;28;20161;-73
2021/06/23 05:00:46;;;;;;;22.02;10.00;;;16.20;99.90;;;;;;5126562;28;20206;-73
2021/06/23 05:03:12;;;;;;;15.15;9.90;;;16.10;99.90;;;;;;5126454;28;20170;-74
2021/06/23 05:05:39;;;;;;;15.73;9.68;;;16.30;99.90;;;;;;5108105;28;20240;-73
2021/06/23 05:08:06;;;;;;;14.07;9.48;;;16.30;99.90;;;;;;5123973;28;20166;-73
2021/06/23 05:10:32;;;;;;;14.45;10.25;;;16.20;99.90;;;;;;5125889;28;20724;-73
2021/06/23 05:12:58;;;;;;;20.50;10.05;;;16.20;99.90;;;;;;5126535;28;20163;-73
2021/06/23 05:15:23;;;;;;;15.07;10.55;;;16.20;99.90;;;;;;5126546;28;20189;-73
2021/06/23 05:17:49;;;;;;;19.63;10.75;;;16.30;99.90;;;;;;5124171;28;20155;-74
2021/06/23 05:20:16;;;;;;;19.83;9.68;;;16.30;99.90;;;;;;5126250;28;20162;-73
2021/06/23 05:22:42;;;;;;;17.35;10.40;;;16.40;99.90;;;;;;5126638;28;20522;-72
2021/06/23 05:25:08;;;;;;;17.67;10.30;;;16.30;99.90;;;;;;5125972;28;20174;-73
2021/06/23 05:27:34;;;;;;;27.80;10.13;;;16.30;99.90;;;;;;5105603;28;20565;-73
2021/06/23 05:29:59;;;;;;;16.33;10.15;;;16.20;99.90;;;;;;5107834;28;20231;-73
2021/06/23 05:32:25;;;;;;;15.63;10.93;;;16.30;99.90;;;;;;5128998;28;20154;-73
2021/06/23 05:34:51;;;;;;;18.20;10.32;;;16.60;99.90;;;;;;5130738;28;20196;-73
2021/06/23 05:37:17;;;;;;;21.20;10.88;;;16.40;99.90;;;;;;5128001;28;20286;-72
2021/06/23 05:39:43;;;;;;;18.95;10.80;;;16.40;99.90;;;;;;5129682;28;20159;-73
2021/06/23 05:42:08;;;;;;;26.30;11.05;;;16.40;99.90;;;;;;5130270;28;20162;-73
2021/06/23 05:44:34;;;;;;;17.95;11.00;;;16.30;99.90;;;;;;5130189;28;20165;-73
2021/06/23 05:47:00;;;;;;;19.95;11.38;;;16.30;99.90;;;;;;5111012;28;20178;-73
2021/06/23 05:49:26;;;;;;;17.48;10.93;;;16.60;99.90;;;;;;5128493;28;20159;-73
2021/06/23 05:51:52;;;;;;;16.13;10.75;;;16.50;99.90;;;;;;5130026;28;20196;-73
2021/06/23 05:54:18;;;;;;;16.15;10.55;;;16.40;99.90;;;;;;5130273;28;20169;-74
2021/06/23 05:56:43;;;;;;;17.83;11.07;;;16.60;99.90;;;;;;5129975;28;20187;-73
2021/06/23 05:59:09;;;;;;;18.30;10.30;;;16.50;99.90;;;;;;5108910;28;20681;-73
2021/06/23 06:01:35;;;;;;;18.35;10.27;;;16.60;99.90;;;;;;5130012;28;20174;-73
2021/06/23 06:04:00;;;;;;;13.65;10.38;;;16.70;99.90;;;;;;5129917;28;20166;-73
2021/06/23 06:06:26;;;;;;;16.83;10.75;;;16.70;99.90;;;;;;5129850;28;20217;-72
2021/06/23 06:08:53;;;;;;;19.50;10.60;;;16.70;99.90;;;;;;5127378;28;20167;-74
2021/06/23 06:11:19;;;;;;;15.52;10.43;;;16.80;99.90;;;;;;5129230;28;20193;-74
2021/06/23 06:13:44;;;;;;;16.17;10.00;;;16.90;99.90;;;;;;5111300;28;20159;-73
2021/06/23 06:16:10;;;;;;;18.05;10.70;;;16.70;99.90;;;;;;5129622;28;20159;-73
2021/06/23 06:18:37;;;;;;;22.83;10.27;;;16.70;99.90;;;;;;5127037;28;20181;-74
2021/06/23 06:21:03;;;;;;;20.45;11.13;;;16.90;99.90;;;;;;5129309;28;20159;-72
2021/06/23 06:23:29;;;;;;;16.15;10.35;;;16.90;99.90;;;;;;5110931;28;20173;-74
2021/06/23 06:25:55;;;;;;;16.95;10.43;;;16.80;99.90;;;;;;5128939;28;20163;-73
2021/06/23 06:28:21;;;;;;;17.02;9.63;;;16.90;99.90;;;;;;5127222;28;20172;-74
2021/06/23 06:30:47;;;;;;;15.48;10.32;;;17.10;99.90;;;;;;5129099;28;20186;-73
2021/06/23 06:33:13;;;;;;;18.05;10.23;;;17.30;99.90;;;;;;5129132;28;20170;-73
2021/06/23 06:35:38;;;;;;;16.55;10.30;;;17.40;99.90;;;;;;5129420;28;20165;-73
2021/06/23 06:38:04;;;;;;;23.13;10.80;;;17.50;99.90;;;;;;5126720;28;20185;-73
2021/06/23 06:40:30;;;;;;;18.23;10.50;;;17.80;99.90;;;;;;5128907;28;20177;-73
2021/06/23 06:42:56;;;;;;;17.52;10.07;;;17.70;99.90;;;;;;5127874;28;20504;-73
2021/06/23 06:45:23;;;;;;;13.93;10.35;;;17.80;99.90;;;;;;5129287;28;20166;-74
2021/06/23 06:47:48;;;;;;;15.15;9.43;;;17.90;99.90;;;;;;5126510;28;20158;-73
2021/06/23 06:50:14;;;;;;;22.13;9.82;;;17.90;99.90;;;;;;5128497;28;20194;-73
2021/06/23 06:52:40;;;;;;;14.60;9.27;;;18.00;99.90;;;;;;5128870;28;20157;-74
2021/06/23 06:55:07;;;;;;;16.38;8.85;;;18.10;99.90;;;;;;5128466;28;20253;-74
2021/06/23 06:57:33;;;;;;;16.05;9.75;;;17.90;99.90;;;;;;5126469;28;20170;-73
2021/06/23 06:59:58;;;;;;;18.10;9.48;;;17.90;99.90;;;;;;5128687;28;20155;-74
2021/06/23 07:02:24;;;;;;;17.92;9.40;;;18.00;99.90;;;;;;5110654;28;20166;-73
2021/06/23 07:04:50;;;;;;;22.33;9.40;;;18.10;99.90;;;;;;5110431;28;20192;-72
2021/06/23 07:07:16;;;;;;;20.00;9.98;;;18.20;99.90;;;;;;5089661;28;20210;-73
2021/06/23 07:09:41;;;;;;;18.00;9.90;;;18.30;99.90;;;;;;5107410;28;20171;-72
2021/06/23 07:12:08;;;;;;;18.90;10.23;;;18.50;99.90;;;;;;5107725;28;20195;-73
2021/06/23 07:14:34;;;;;;;14.90;10.45;;;18.40;99.90;;;;;;5108225;28;20163;-74
2021/06/23 07:16:59;;;;;;;22.02;10.70;;;18.50;99.90;;;;;;5107045;28;20242;-73
2021/06/23 07:19:25;;;;;;;19.95;10.38;;;18.60;99.90;;;;;;5106078;28;20155;-73
2021/06/23 07:21:51;;;;;;;20.70;11.13;;;18.70;99.90;;;;;;5089631;28;20171;-73
2021/06/23 07:24:18;;;;;;;20.77;11.38;;;18.60;99.90;;;;;;5107663;28;20186;-73
2021/06/23 07:26:46;;;;;;;19.58;11.80;;;18.60;99.90;;;;;;5107423;28;20221;-72
2021/06/23 07:29:11;;;;;;;16.23;11.35;;;18.30;99.90;;;;;;5105111;28;20162;-73
2021/06/23 07:36:41;;;;;;;26.65;11.85;;;18.30;99.90;;;;;;5107843;28;20174;-72
2021/06/23 07:39:12;;;;;;;14.88;10.95;;;18.50;99.90;;;;;;5104830;28;20238;-73
2021/06/23 07:41:40;;;;;;;19.83;11.23;;;18.70;99.90;;;;;;5107228;28;20179;-73
2021/06/23 07:44:07;;;;;;;18.38;10.65;;;18.60;99.90;;;;;;5107532;28;20201;-72
2021/06/23 07:46:40;;;;;;;22.52;10.88;;;18.90;99.90;;;;;;5107550;28;20185;-73
2021/06/23 07:49:11;;;;;;;13.57;9.80;;;19.10;99.90;;;;;;5104772;28;20174;-72
2021/06/23 07:51:44;;;;;;;22.80;10.95;;;19.40;99.90;;;;;;5089170;28;20199;-72
2021/06/23 07:54:21;;;;;;;23.40;10.10;;;19.60;99.90;;;;;;5106846;28;20227;-72
2021/06/23 08:10:08;;;;;;;13.80;6.38;;;20.20;99.90;;;;;;5127099;28;20172;-72
2021/06/23 08:12:50;;;;;;;10.45;6.05;;;20.20;99.90;;;;;;5127682;28;20241;-73
2021/06/23 08:15:16;;;;;;;13.55;6.28;;;20.20;99.90;;;;;;5109031;28;20158;-73
2021/06/23 08:17:41;;;;;;;15.23;6.47;;;20.00;99.90;;;;;;5106614;28;20174;-73
2021/06/23 08:20:08;;;;;;;16.35;5.90;;;20.00;99.90;;;;;;5126992;28;20155;-73
2021/06/23 08:22:34;;;;;;;11.60;6.57;;;20.00;99.90;;;;;;5127366;28;20178;-73
2021/06/23 08:24:59;;;;;;;12.93;5.70;;;19.90;99.90;;;;;;5126512;28;20162;-73
2021/06/23 08:27:25;;;;;;;14.95;5.85;;;20.00;99.90;;;;;;5105792;28;20349;-73
2021/06/23 08:29:51;;;;;;;12.55;5.50;;;20.20;99.90;;;;;;5126528;28;20154;-73
2021/06/23 08:32:16;;;;;;;9.82;5.20;;;20.40;99.90;;;;;;5127149;28;20644;-73
2021/06/23 08:34:42;;;;;;;14.48;4.65;;;20.40;99.90;;;;;;5127003;28;20219;-74
2021/06/23 08:37:08;;;;;;;10.85;5.00;;;20.30;99.90;;;;;;5125239;28;20628;-72
2021/06/23 08:39:33;;;;;;;12.45;4.70;;;20.40;99.90;;;;;;5126189;28;20215;-73
2021/06/23 08:41:59;;;;;;;12.25;4.80;;;20.20;99.90;;;;;;5108003;28;20648;-73
2021/06/23 08:44:25;;;;;;;11.70;4.78;;;20.30;99.90;;;;;;5126915;28;20162;-73
2021/06/23 08:46:51;;;;;;;11.80;5.17;;;20.20;99.90;;;;;;5107533;28;20421;-73
2021/06/23 08:49:18;;;;;;;11.90;5.65;;;20.70;99.90;;;;;;5124284;28;20187;-73
2021/06/23 08:51:44;;;;;;;10.98;5.78;;;20.50;99.90;;;;;;5126697;28;20198;-73
2021/06/23 08:54:11;;;;;;;11.40;5.75;;;20.60;99.90;;;;;;5126569;28;20186;-74
2021/06/23 08:56:37;;;;;;;16.15;5.63;;;20.40;99.90;;;;;;5126217;28;20171;-73
2021/06/23 08:59:06;;;;;;;13.95;5.85;;;20.50;99.90;;;;;;5105529;28;20231;-73
2021/06/23 09:01:32;;;;;;;14.75;5.90;;;20.30;99.90;;;;;;5126552;28;20162;-73
2021/06/23 09:04:01;;;;;;;9.55;6.15;;;20.20;99.90;;;;;;5126275;28;20186;-73
2021/06/23 09:06:59;;;;;;;17.65;7.07;;;20.20;99.90;;;;;;5107426;28;20302;-73
2021/06/23 09:09:36;;;;;;;14.35;5.93;;;20.10;99.90;;;;;;5068837;28;20175;-72
2021/06/23 09:12:03;;;;;;;11.82;6.25;;;19.90;99.90;;;;;;5125632;28;20201;-73
2021/06/23 09:14:30;;;;;;;12.65;5.85;;;20.10;99.90;;;;;;5108206;28;20170;-73
2021/06/23 09:16:59;;;;;;;14.38;6.05;;;20.20;99.90;;;;;;5125963;28;20159;-72
2021/06/23 09:19:30;;;;;;;16.05;6.03;;;20.40;99.90;;;;;;5124241;28;20166;-73
2021/06/23 09:21:55;;;;;;;11.70;5.68;;;20.30;99.90;;;;;;5126160;28;20159;-73
2021/06/23 09:24:43;;;;;;;10.48;5.53;;;20.30;99.90;;;;;;5126528;28;20636;-74
2021/06/23 09:27:48;;;;;;;13.80;6.03;;;20.30;99.90;;;;;;5124320;28;20628;-72
2021/06/23 09:30:30;;;;;;;12.43;5.95;;;20.70;99.90;;;;;;5023442;28;20223;-73
2021/06/23 09:33:22;;;;;;;12.45;5.35;;;20.30;99.90;;;;;;5023576;28;20177;-73
2021/06/23 09:36:01;;;;;;;9.50;5.75;;;20.20;99.90;;;;;;5007320;28;20170;-73
2021/06/23 09:38:42;;;;;;;15.27;5.28;;;20.20;99.90;;;;;;5020989;28;20191;-73
2021/06/23 09:41:20;;;;;;;7.68;4.75;;;20.40;99.90;;;;;;5022712;28;20216;-73
2021/06/23 09:43:49;;;;;;;13.90;5.70;;;20.50;99.90;;;;;;5023697;28;20210;-73
2021/06/23 09:46:24;;;;;;;15.20;5.53;;;20.60;99.90;;;;;;5006925;28;20598;-74
2021/06/23 09:48:59;;;;;;;8.90;4.78;;;20.60;99.90;;;;;;5020402;28;20173;-72
2021/06/23 09:51:25;;;;;;;11.80;5.30;;;20.70;99.90;;;;;;5022984;28;20256;-73
2021/06/23 09:53:59;;;;;;;12.30;5.35;;;21.00;99.90;;;;;;5023196;28;20170;-74
2021/06/23 09:56:39;;;;;;;13.10;5.43;;;20.80;99.90;;;;;;5022833;28;20265;-74
2021/06/23 09:59:06;;;;;;;17.10;5.57;;;21.00;99.90;;;;;;5003866;28;20170;-73
2021/06/23 10:01:39;;;;;;;10.90;4.82;;;21.00;99.90;;;;;;5023005;28;20175;-73
2021/06/23 10:04:10;;;;;;;18.63;5.30;;;20.90;99.90;;;;;;5006320;28;20692;-73
2021/06/23 10:06:45;;;;;;;10.13;4.80;;;20.80;99.90;;;;;;5063130;28;20218;-73
2021/06/23 10:09:25;;;;;;;13.90;4.68;;;20.50;99.90;;;;;;5104355;28;20174;-73
2021/06/23 10:12:01;;;;;;;12.65;4.75;;;20.70;99.90;;;;;;5125318;28;20183;-74
2021/06/23 10:14:32;;;;;;;9.90;4.22;;;20.90;99.90;;;;;;5107563;28;20190;-73
2021/06/23 10:17:02;;;;;;;13.90;4.07;;;21.10;99.90;;;;;;5124836;28;20539;-73
2021/06/23 10:19:30;;;;;;;9.57;4.18;;;21.20;99.90;;;;;;5127777;28;20155;-73
2021/06/23 10:21:58;;;;;;;16.08;4.75;;;21.00;99.90;;;;;;5129141;28;20174;-73
2021/06/23 10:24:27;;;;;;;9.10;4.28;;;21.00;99.90;;;;;;5129607;28;20167;-73
2021/06/23 10:26:53;;;;;;;12.63;5.20;;;21.00;99.90;;;;;;5128780;28;20231;-72
2021/06/23 10:29:24;;;;;;;7.95;4.28;;;21.20;99.90;;;;;;5126928;28;20186;-73
2021/06/23 10:31:51;;;;;;;10.50;4.35;;;21.40;99.90;;;;;;5129431;28;20190;-73
2021/06/23 10:34:18;;;;;;;15.00;5.30;;;21.40;99.90;;;;;;5129095;28;20166;-74
2021/06/23 10:36:45;;;;;;;14.57;4.60;;;21.40;99.90;;;;;;5128744;28;20208;-73
2021/06/23 10:39:11;;;;;;;15.93;4.93;;;21.20;99.90;;;;;;5108110;28;20166;-73
2021/06/23 10:41:40;;;;;;;11.80;4.57;;;20.90;99.90;;;;;;5128883;28;20163;-73
2021/06/23 10:44:18;;;;;;;13.98;4.70;;;21.00;99.90;;;;;;5110901;28;20167;-73
2021/06/23 10:46:50;;;;;;;13.75;5.70;;;21.10;99.90;;;;;;5110643;28;20261;-73
2021/06/23 10:49:16;;;;;;;13.68;4.28;;;21.30;99.90;;;;;;5126226;28;20644;-73
2021/06/23 10:51:43;;;;;;;10.40;4.20;;;21.70;99.90;;;;;;5128982;28;20216;-73
2021/06/23 10:54:35;;;;;;;7.00;3.90;;;22.00;99.90;;;;;;5128892;28;20237;-73
2021/06/23 10:57:00;;;;;;;13.85;4.28;;;22.50;99.90;;;;;;5127623;28;20190;-73
2021/06/23 10:59:36;;;;;;;10.60;4.25;;;22.60;99.90;;;;;;5108981;28;20163;-73
2021/06/23 11:02:09;;;;;;;7.45;3.78;;;23.00;99.90;;;;;;5128708;28;20174;-73
2021/06/23 11:04:57;;;;;;;22.13;3.80;;;23.00;99.90;;;;;;5128843;28;20163;-73
2021/06/23 11:07:40;;;;;;;8.82;3.55;;;23.30;99.90;;;;;;5126225;28;20225;-73
2021/06/23 11:10:12;;;;;;;12.98;4.00;;;23.60;99.90;;;;;;5109669;28;20170;-74
2021/06/23 11:13:02;;;;;;;9.27;3.72;;;23.50;99.90;;;;;;5128587;28;20186;-73
2021/06/23 11:15:30;;;;;;;15.18;5.47;;;23.70;99.90;;;;;;5110165;28;20223;-73
2021/06/23 11:18:17;;;;;;;10.77;4.68;;;23.80;99.90;;;;;;5126000;28;20163;-73
2021/06/23 11:20:44;;;;;;;11.45;4.43;;;23.40;99.90;;;;;;5109821;28;20178;-73
2021/06/23 11:23:43;;;;;;;10.23;4.63;;;23.40;99.90;;;;;;5128483;28;20215;-73
2021/06/23 11:26:18;;;;;;;9.85;4.25;;;23.60;99.90;;;;;;5109496;28;20179;-74
2021/06/23 11:28:45;;;;;;;9.15;4.10;;;23.70;99.90;;;;;;5125472;28;20262;-73
2021/06/23 11:31:12;;;;;;;10.82;4.65;;;23.50;99.90;;;;;;5127698;28;20190;-73
2021/06/23 11:33:37;;;;;;;8.60;4.05;;;23.20;99.90;;;;;;5110051;28;20155;-73
2021/06/23 11:36:22;;;;;;;11.80;4.55;;;23.10;99.90;;;;;;5109624;28;20177;-73
2021/06/23 11:38:52;;;;;;;10.40;4.07;;;23.30;99.90;;;;;;5125496;28;20155;-75
2021/06/23 11:41:17;;;;;;;8.45;4.47;;;23.30;99.90;;;;;;5127688;28;20170;-73
2021/06/23 11:43:43;;;;;;;11.07;4.55;;;23.30;99.90;;;;;;5109953;28;20188;-73
2021/06/23 11:46:09;;;;;;;16.67;5.00;;;23.60;99.90;;;;;;5128111;28;20167;-74
2021/06/23 11:48:37;;;;;;;11.98;5.07;;;23.70;99.90;;;;;;5107236;28;20174;-73
2021/06/23 11:51:04;;;;;;;18.67;4.95;;;23.80;99.90;;;;;;5127582;28;20182;-73
2021/06/23 11:53:30;;;;;;;15.90;4.40;;;23.90;99.90;;;;;;5109598;28;20221;-73
2021/06/23 11:55:55;;;;;;;7.97;4.57;;;23.50;99.90;;;;;;5127201;28;20177;-73
2021/06/23 11:58:21;;;;;;;11.07;4.35;;;23.80;99.90;;;;;;5124957;28;20158;-73
2021/06/23 12:00:47;;;;;;;13.63;4.70;;;23.80;99.90;;;;;;5127473;28;20182;-73
2021/06/23 12:03:15;;;;;;;13.43;4.38;;;24.00;99.90;;;;;;5127562;28;20185;-74
2021/06/23 12:05:42;;;;;;;12.57;5.30;;;24.00;99.90;;;;;;5127363;28;20751;-73
2021/06/23 12:08:08;;;;;;;10.27;5.38;;;23.80;99.90;;;;;;5124856;28;20170;-73
2021/06/23 12:10:36;;;;;;;12.95;5.43;;;23.70;99.90;;;;;;5108277;28;20195;-73
2021/06/23 12:13:02;;;;;;;14.23;5.30;;;23.80;99.90;;;;;;5127274;28;20159;-73
2021/06/23 12:15:30;;;;;;;11.10;4.93;;;23.80;99.90;;;;;;5109093;28;20177;-73
2021/06/23 12:17:58;;;;;;;11.30;4.95;;;23.70;99.90;;;;;;5124925;28;20232;-73
2021/06/23 12:20:25;;;;;;;13.65;5.20;;;23.50;99.90;;;;;;5108911;28;20173;-73
2021/06/23 12:22:57;;;;;;;15.80;4.25;;;23.30;99.90;;;;;;5127481;28;20170;-73
2021/06/23 12:25:28;;;;;;;15.93;5.57;;;22.30;99.90;;;;;;5126402;28;20230;-73
2021/06/23 12:27:55;;;;;;;13.88;4.80;;;22.40;99.90;;;;;;5106184;28;20175;-74
2021/06/23 12:30:25;;;;;;;12.82;5.20;;;22.20;99.90;;;;;;5108511;28;20186;-73
2021/06/23 12:32:51;;;;;;;5.95;4.45;;;22.60;99.90;;;;;;5127420;28;20157;-73
2021/06/23 12:35:17;;;;;;;7.18;4.15;;;23.20;99.90;;;;;;5127251;28;20202;-73
2021/06/23 12:37:42;;;;;;;11.30;4.60;;;22.90;99.90;;;;;;5124769;28;20159;-74
2021/06/23 12:40:08;;;;;;;9.07;3.97;;;22.30;99.90;;;;;;5126529;28;20159;-74
2021/06/23 12:42:34;;;;;;;10.75;4.78;;;21.80;99.90;;;;;;5126960;28;20173;-73
2021/06/23 12:45:00;;;;;;;12.00;5.13;;;21.10;99.90;;;;;;5126512;28;20218;-74
2021/06/23 12:47:25;;;;;;;11.80;4.75;;;20.40;99.90;;;;;;5124611;28;20155;-74
2021/06/23 12:49:51;;;;;;;15.35;4.78;;;20.50;99.90;;;;;;5126968;28;20158;-73
2021/06/23 12:52:17;;;;;;;18.75;5.38;;;20.70;99.90;;;;;;5126593;28;20254;-73
2021/06/23 12:54:42;;;;;;;9.55;4.82;;;20.70;99.90;;;;;;5126858;28;20238;-74
2021/06/23 12:57:08;;;;;;;8.43;4.97;;;21.00;99.90;;;;;;5124599;28;20166;-74
2021/06/23 12:59:34;;;;;;;11.35;5.18;;;21.50;99.90;;;;;;5126225;28;20186;-75